Friday, October 19, 2018, 1:01 AM EDT
Back to Local

KPSF, Pittsfield Municipal Airport

Location: Pittsfield, MA, United States Lat: 42.433
Local Time: 1:01 AM EDT ( 5:01 GMT) Lon: -73.283
Time Zone: US/Eastern Elev: 1194 ft

Show me the last for .
Show Decoded

2018-10-18 23:54 METAR KPSF 190354Z AUTO 00000KT 10SM CLR 01/M06 A3025 RMK AO2 SLP249 T00111056 =
2018-10-18 22:54 METAR KPSF 190254Z AUTO 00000KT 10SM OVC037 01/M04 A3026 RMK AO2 SLP254
                 T00111039 50000 =
2018-10-18 21:54 METAR KPSF 190154Z AUTO 21004KT 10SM BKN040 01/M06 A3027 RMK AO2 SLP257
                 T00111056 =
2018-10-18 20:54 METAR KPSF 190054Z AUTO 25004KT 10SM CLR 02/M06 A3026 RMK AO2 SLP255 T00171061 =
2018-10-18 19:54 METAR KPSF 182354Z AUTO 29009G14KT 260V330 10SM CLR 02/M07 A3026 RMK AO2 SLP255
                 T00221067 10056 20017 51011 =
2018-10-18 18:54 METAR KPSF 182254Z AUTO 10SM CLR 03/M09 A3025 RMK AO2 SLP252 T00281089 =
2018-10-18 17:54 METAR KPSF 182154Z AUTO 29010KT 10SM CLR 04/M08 A3024 RMK AO2 SLP247 T00391083 =
2018-10-18 16:54 METAR KPSF 182054Z AUTO 30013G21KT 10SM CLR 05/M10 A3023 RMK AO2 SLP241
                 T00501100 55004 =
2018-10-18 15:54 METAR KPSF 181954Z AUTO 31011G25KT 10SM CLR 06/M09 A3022 RMK AO2 SLP239
                 T00561094 =
2018-10-18 14:54 METAR KPSF 181854Z AUTO 28015G22KT 10SM CLR 05/M09 A3023 RMK AO2 SLP240
                 T00501094 =
2018-10-18 13:54 METAR KPSF 181754Z AUTO 32015G25KT 10SM CLR 05/M09 A3024 RMK AO2 SLP243
                 T00501089 10050 21006 50004 =
2018-10-18 12:54 METAR KPSF 181654Z AUTO 30010G22KT 10SM CLR 04/M09 A3025 RMK AO2 PK WND
                 30026/1613 SLP247 T00391089 =
2018-10-18 11:54 METAR KPSF 181554Z AUTO 30013G23KT 10SM FEW043 03/M08 A3024 RMK AO2 PK WND
                 31026/1527 SLP246 T00331078 =
2018-10-18 10:54 METAR KPSF 181454Z AUTO 31014G29KT 10SM CLR 02/M09 A3023 RMK AO2 PK WND
                 27032/1401 SLP240 T00221089 51005 =
2018-10-18 09:54 METAR KPSF 181354Z AUTO 30016G23KT 10SM CLR 02/M07 A3022 RMK AO2 PK WND
                 28031/1314 SLP238 T00171072 =
2018-10-18 08:54 METAR KPSF 181254Z AUTO 29015G24KT 10SM CLR 00/M07 A3023 RMK AO2 PK WND
                 28027/1239 SLP242 T00001072 =
2018-10-18 07:54 METAR KPSF 181154Z AUTO 29014G22KT 10SM CLR M01/M07 A3021 RMK AO2 SLP237 60000
                 70007 T10061067 10028 21011 51030 =
2018-10-18 06:54 METAR KPSF 181054Z AUTO 29012G17KT 10SM CLR M01/M07 A3018 RMK AO2 SLP227
                 T10111072 =
2018-10-18 05:54 METAR KPSF 180954Z AUTO 29009KT 10SM CLR M01/M07 A3015 RMK AO2 SLP216 T10061072
                 =
2018-10-18 04:54 METAR KPSF 180854Z AUTO 30013G18KT 10SM OVC085 01/M07 A3012 RMK AO2 SLP204 60000
                 T00061067 52026 =
2018-10-18 03:54 METAR KPSF 180754Z AUTO 30013G22KT 280V360 10SM OVC080 01/M07 A3010 RMK AO2 PK
                 WND 28028/0742 SLP195 T00111067 =
2018-10-18 02:54 METAR KPSF 180654Z AUTO 29016G23KT 10SM BKN033 BKN047 OVC085 02/M04 A3007 RMK
                 AO2 SNE00 SLP180 P0000 T00221039 =
2018-10-18 01:54 METAR KPSF 180554Z AUTO 30012G22KT 9SM -SN FEW029 SCT037 OVC055 03/M03 A3004 RMK
                 AO2 SNB50 SLP171 P0000 60000 T00281033 10044 20028 53018 =

Support USWX by starting your Amazon purchase here.